Time;durP1;ratioP1;P1;durP2;ratioP2;P2;SDS_P1;SDS_P2;PMS_P1;PMS_P2;Temp;Humidity;BMP_temperature;BMP_pressure;BME280_temperature;BME280_humidity;BME280_pressure;Samples;Min_cycle;Max_cycle;Signal;HPM_P1;HPM_P2
2023/04/24 00:00:09;;;;;;;6.80;5.97;;;14.70;99.90;;;;;;5063520;28;20048;-76
2023/04/24 00:02:37;;;;;;;8.15;7.13;;;14.50;99.90;;;;;;5066592;28;20346;-76
2023/04/24 00:05:05;;;;;;;9.48;6.70;;;12.10;99.90;;;;;;5049873;28;20606;-75
2023/04/24 00:07:31;;;;;;;9.88;7.32;;;15.20;99.90;;;;;;5075959;28;20110;-76
2023/04/24 00:09:57;;;;;;;7.75;6.82;;;12.70;99.90;;;;;;5064941;28;20054;-76
2023/04/24 00:12:23;;;;;;;7.95;6.47;;;12.50;99.90;;;;;;5069106;28;20149;-77
2023/04/24 00:14:48;;;;;;;9.15;7.18;;;15.30;99.90;;;;;;5033253;28;20124;-77
2023/04/24 00:17:14;;;;;;;8.70;6.60;;;12.20;99.90;;;;;;5075207;28;20051;-76
2023/04/24 00:19:39;;;;;;;6.82;5.63;;;12.00;99.90;;;;;;5069435;28;20041;-77
2023/04/24 00:22:05;;;;;;;7.55;4.43;;;13.70;99.90;;;;;;5051974;28;20032;-77
2023/04/24 00:24:31;;;;;;;4.55;3.22;;;14.10;99.90;;;;;;5069232;28;20121;-76
2023/04/24 00:26:57;;;;;;;4.05;3.20;;;14.70;99.90;;;;;;5051799;28;20040;-76
2023/04/24 00:29:23;;;;;;;3.05;2.30;;;13.40;99.90;;;;;;5065749;28;20068;-76
2023/04/24 00:31:48;;;;;;;2.00;1.65;;;12.30;99.90;;;;;;5067234;28;20474;-77
2023/04/24 00:34:14;;;;;;;2.70;1.50;;;14.50;99.90;;;;;;5052653;28;20385;-76
2023/04/24 00:36:40;;;;;;;1.80;1.70;;;11.10;99.90;;;;;;5035148;28;20098;-77
2023/04/24 00:39:08;;;;;;;1.58;1.30;;;11.10;99.90;;;;;;5081008;28;20048;-75
2023/04/24 00:41:34;;;;;;;1.10;1.00;;;11.30;99.90;;;;;;5053216;28;20056;-76
2023/04/24 00:44:00;;;;;;;1.35;1.20;;;12.60;99.90;;;;;;5070576;28;20040;-76
2023/04/24 00:46:26;;;;;;;1.23;1.13;;;13.70;99.90;;;;;;5076179;28;20048;-77
2023/04/24 00:48:52;;;;;;;1.27;1.15;;;12.60;99.90;;;;;;5064655;28;20076;-78
2023/04/24 00:51:18;;;;;;;1.60;1.20;;;13.60;99.90;;;;;;5052093;28;20041;-78
2023/04/24 00:53:44;;;;;;;1.38;1.20;;;13.40;99.90;;;;;;5052431;28;20054;-77
2023/04/24 00:56:10;;;;;;;2.70;1.40;;;14.40;99.90;;;;;;5046836;28;20503;-78
2023/04/24 00:58:36;;;;;;;1.40;1.25;;;10.60;99.90;;;;;;5054272;28;20064;-76
2023/04/24 01:01:02;;;;;;;2.25;1.40;;;10.60;99.90;;;;;;5046785;28;20499;-77
2023/04/24 01:03:31;;;;;;;1.55;1.30;;;10.80;99.90;;;;;;5051178;28;20040;-77
2023/04/24 01:05:57;;;;;;;3.50;1.90;;;11.50;99.90;;;;;;5051561;28;20089;-80
2023/04/24 01:08:28;;;;;;;1.48;1.27;;;10.60;99.90;;;;;;5049694;28;20083;-78
2023/04/24 01:10:54;;;;;;;1.70;1.60;;;13.90;99.90;;;;;;5078340;28;20037;-77
2023/04/24 01:13:21;;;;;;;1.50;1.40;;;14.50;99.90;;;;;;5067194;28;20115;-78
2023/04/24 01:15:47;;;;;;;1.40;1.30;;;11.80;99.90;;;;;;5052362;28;20055;-78
2023/04/24 01:18:13;;;;;;;1.70;1.45;;;12.00;99.90;;;;;;5051319;28;20454;-78
2023/04/24 01:20:40;;;;;;;1.70;1.52;;;13.10;99.90;;;;;;5037577;28;20039;-77
2023/04/24 01:23:07;;;;;;;2.10;1.75;;;11.00;99.90;;;;;;5081711;28;20382;-77
2023/04/24 01:25:33;;;;;;;1.67;1.58;;;11.80;99.90;;;;;;5064920;28;20076;-76
2023/04/24 01:27:59;;;;;;;1.77;1.67;;;11.20;99.90;;;;;;5060116;28;20071;-77
2023/04/24 01:30:25;;;;;;;1.90;1.58;;;14.00;99.90;;;;;;5063643;28;20033;-76
2023/04/24 01:32:52;;;;;;;1.73;1.58;;;13.10;99.90;;;;;;5065849;28;20036;-76
2023/04/24 01:35:18;;;;;;;2.22;2.03;;;12.00;99.90;;;;;;5067485;28;20080;-78
2023/04/24 01:37:44;;;;;;;1.90;1.70;;;12.10;99.90;;;;;;5067216;28;20691;-76
2023/04/24 01:40:10;;;;;;;2.50;2.22;;;14.20;99.90;;;;;;5063556;28;20044;-78
2023/04/24 01:42:36;;;;;;;3.30;2.72;;;10.60;99.90;;;;;;5031388;28;20052;-79
2023/04/24 01:45:05;;;;;;;2.40;2.00;;;11.80;99.90;;;;;;5068219;28;20474;-77
2023/04/24 01:47:31;;;;;;;2.97;1.92;;;13.00;99.90;;;;;;5064155;28;20129;-77
2023/04/24 01:49:58;;;;;;;5.25;2.38;;;14.60;99.90;;;;;;5064788;28;20049;-78
2023/04/24 01:52:24;;;;;;;3.58;2.50;;;10.40;99.90;;;;;;5064820;28;20458;-77
2023/04/24 01:54:50;;;;;;;2.38;2.17;;;12.00;99.90;;;;;;5044150;28;20080;-78
2023/04/24 01:57:16;;;;;;;2.22;2.03;;;10.40;99.90;;;;;;5052078;28;20421;-78
2023/04/24 01:59:42;;;;;;;2.55;2.35;;;10.40;99.90;;;;;;5066763;28;20070;-78
2023/04/24 02:02:07;;;;;;;3.15;2.80;;;14.60;99.90;;;;;;5048885;28;20052;-78
2023/04/24 02:04:33;;;;;;;3.40;3.10;;;11.50;99.90;;;;;;5063167;28;20048;-79
2023/04/24 02:06:59;;;;;;;3.38;2.83;;;10.90;99.90;;;;;;5088562;28;20520;-79
2023/04/24 02:09:25;;;;;;;3.22;2.92;;;14.80;99.90;;;;;;5049203;28;20040;-77
2023/04/24 02:11:50;;;;;;;4.00;3.00;;;11.90;99.90;;;;;;5037292;28;20033;-78
2023/04/24 02:14:16;;;;;;;3.70;2.88;;;13.10;99.90;;;;;;5043239;28;20119;-76
2023/04/24 02:16:42;;;;;;;3.35;3.05;;;10.40;99.90;;;;;;5061834;28;20603;-76
2023/04/24 02:19:08;;;;;;;3.50;3.20;;;12.50;99.90;;;;;;5027618;28;20094;-78
2023/04/24 02:21:34;;;;;;;3.85;3.47;;;11.00;99.90;;;;;;5044900;28;20041;-75
2023/04/24 02:23:59;;;;;;;4.40;3.97;;;11.20;99.90;;;;;;5058569;28;20045;-78
2023/04/24 02:26:26;;;;;;;6.88;4.25;;;11.00;99.90;;;;;;5046585;28;20073;-76
2023/04/24 02:28:51;;;;;;;4.88;4.38;;;13.70;99.90;;;;;;5088280;28;20039;-77
2023/04/24 02:31:17;;;;;;;4.68;4.28;;;13.50;99.90;;;;;;5058149;28;20032;-78
2023/04/24 02:33:43;;;;;;;5.32;4.82;;;11.80;99.90;;;;;;5045096;28;20064;-79
2023/04/24 02:36:08;;;;;;;7.25;5.30;;;12.20;99.90;;;;;;5045416;28;20119;-78
2023/04/24 02:38:34;;;;;;;5.45;4.93;;;13.70;99.90;;;;;;5062485;28;20040;-78
2023/04/24 02:41:01;;;;;;;5.60;5.10;;;10.40;99.90;;;;;;5061639;28;20041;-77
2023/04/24 02:43:27;;;;;;;5.60;5.10;;;13.10;99.90;;;;;;5057028;28;20101;-77
2023/04/24 02:45:53;;;;;;;6.47;5.78;;;13.10;99.90;;;;;;5058191;28;20473;-78
2023/04/24 02:48:20;;;;;;;8.15;6.10;;;14.80;99.90;;;;;;5060775;28;20052;-77
2023/04/24 02:50:46;;;;;;;6.65;5.95;;;13.90;99.90;;;;;;5059306;28;20064;-78
2023/04/24 02:53:12;;;;;;;6.45;5.75;;;11.40;99.90;;;;;;5059817;28;20068;-77
2023/04/24 02:55:37;;;;;;;7.40;6.57;;;14.60;99.90;;;;;;5028966;28;20090;-76
2023/04/24 02:58:03;;;;;;;7.53;6.43;;;14.10;99.90;;;;;;5045713;28;20044;-77
2023/04/24 03:00:29;;;;;;;7.70;6.35;;;13.60;99.90;;;;;;5066451;28;20530;-78
2023/04/24 03:02:55;;;;;;;9.27;6.90;;;11.30;99.90;;;;;;5043910;28;20130;-78
2023/04/24 03:05:21;;;;;;;6.88;6.10;;;11.70;99.90;;;;;;5064347;28;20481;-78
2023/04/24 03:07:47;;;;;;;6.57;5.88;;;12.20;99.90;;;;;;5056471;28;20041;-78
2023/04/24 03:10:13;;;;;;;8.00;6.22;;;14.90;99.90;;;;;;5050816;28;20420;-78
2023/04/24 03:12:38;;;;;;;7.88;6.70;;;10.80;99.90;;;;;;5049821;28;20040;-78
2023/04/24 03:15:05;;;;;;;7.40;6.60;;;11.00;99.90;;;;;;5049734;28;20453;-78
2023/04/24 03:17:30;;;;;;;7.28;6.20;;;11.20;99.90;;;;;;5030493;28;20041;-80
2023/04/24 03:19:56;;;;;;;8.00;6.57;;;13.80;99.90;;;;;;5018598;28;20055;-79
2023/04/24 03:22:22;;;;;;;8.35;6.55;;;11.20;99.90;;;;;;5050204;28;20044;-80
2023/04/24 03:24:47;;;;;;;6.85;6.10;;;10.70;99.90;;;;;;5048856;28;20048;-79
2023/04/24 03:27:13;;;;;;;7.15;6.43;;;11.10;99.90;;;;;;5067402;28;20405;-78
2023/04/24 03:29:39;;;;;;;7.40;6.38;;;12.10;99.90;;;;;;5048406;28;20182;-79
2023/04/24 03:32:05;;;;;;;7.72;6.93;;;15.00;99.90;;;;;;5054312;28;20037;-78
2023/04/24 03:34:30;;;;;;;10.18;8.68;;;12.70;99.90;;;;;;5036610;28;20043;-78
2023/04/24 03:36:56;;;;;;;10.52;9.25;;;10.80;99.90;;;;;;5071453;28;20052;-78
2023/04/24 03:39:22;;;;;;;10.80;9.35;;;10.70;99.90;;;;;;5053118;28;20044;-79
2023/04/24 03:41:48;;;;;;;12.95;10.20;;;13.20;99.90;;;;;;5052586;28;20061;-78
2023/04/24 03:44:13;;;;;;;12.73;10.80;;;14.40;99.90;;;;;;5038001;28;20048;-77
2023/04/24 03:46:39;;;;;;;13.75;11.20;;;14.30;99.90;;;;;;5052835;28;20389;-78
2023/04/24 03:49:05;;;;;;;12.30;10.88;;;10.80;99.90;;;;;;5017687;28;20095;-78
2023/04/24 03:51:31;;;;;;;12.70;10.95;;;11.70;99.90;;;;;;5052306;28;20987;-78
2023/04/24 03:53:57;;;;;;;14.10;12.13;;;10.80;99.90;;;;;;5053697;28;20055;-77
2023/04/24 03:56:23;;;;;;;13.68;12.15;;;12.80;99.90;;;;;;5037783;28;20048;-79
2023/04/24 03:58:48;;;;;;;12.77;11.48;;;11.90;99.90;;;;;;5047695;28;20516;-79
2023/04/24 04:01:15;;;;;;;12.82;11.45;;;14.30;99.90;;;;;;5046388;28;20078;-78
2023/04/24 04:03:41;;;;;;;12.07;10.77;;;11.20;99.90;;;;;;5049626;28;20428;-79
2023/04/24 04:06:07;;;;;;;10.93;9.82;;;13.20;99.90;;;;;;5050407;28;20044;-79
2023/04/24 04:08:33;;;;;;;11.07;9.95;;;13.60;99.90;;;;;;5052390;28;20636;-80
2023/04/24 04:10:58;;;;;;;11.40;10.30;;;14.00;99.90;;;;;;5068311;28;20326;-78
2023/04/24 04:13:24;;;;;;;11.60;10.40;;;14.00;99.90;;;;;;5079316;28;20036;-79
2023/04/24 04:15:50;;;;;;;11.48;10.30;;;13.70;99.90;;;;;;5035680;28;20040;-78
2023/04/24 04:18:16;;;;;;;10.73;9.63;;;13.40;99.90;;;;;;5049838;28;20087;-79
2023/04/24 04:20:42;;;;;;;10.93;9.18;;;13.60;99.90;;;;;;5069827;28;20397;-77
2023/04/24 04:23:07;;;;;;;11.15;9.95;;;13.30;99.90;;;;;;5051477;28;20037;-78
2023/04/24 04:25:34;;;;;;;10.82;9.73;;;13.90;99.90;;;;;;5052876;28;20106;-78
2023/04/24 04:27:59;;;;;;;8.93;8.07;;;11.00;99.90;;;;;;5051536;28;20040;-78
2023/04/24 04:30:25;;;;;;;8.55;7.75;;;13.50;99.90;;;;;;5069968;28;20070;-79
2023/04/24 04:32:51;;;;;;;10.10;9.10;;;11.60;99.90;;;;;;5048551;28;20119;-79
2023/04/24 04:35:17;;;;;;;9.68;8.70;;;12.20;99.90;;;;;;5032441;28;20036;-79
2023/04/24 04:37:43;;;;;;;9.40;8.48;;;14.20;99.90;;;;;;5067724;28;20045;-79
2023/04/24 04:40:12;;;;;;;9.63;8.60;;;11.80;99.90;;;;;;5082345;28;20107;-79
2023/04/24 04:42:40;;;;;;;8.70;7.80;;;12.60;99.90;;;;;;5067066;28;20040;-79
2023/04/24 04:45:11;;;;;;;7.75;6.97;;;12.00;99.90;;;;;;5051654;28;20546;-79
2023/04/24 04:47:37;;;;;;;7.60;6.80;;;10.80;99.90;;;;;;5069506;28;20657;-79
2023/04/24 04:50:05;;;;;;;10.48;8.48;;;12.30;99.90;;;;;;5068350;28;20077;-79
2023/04/24 04:52:31;;;;;;;8.73;7.30;;;11.60;99.90;;;;;;5065486;28;20076;-78
2023/04/24 04:54:56;;;;;;;10.55;8.45;;;11.40;99.90;;;;;;5035008;28;20083;-78
2023/04/24 04:57:22;;;;;;;9.00;8.10;;;11.40;99.90;;;;;;5049512;28;20477;-79
2023/04/24 04:59:48;;;;;;;8.40;7.35;;;13.70;99.90;;;;;;5065671;28;20496;-79
2023/04/24 05:02:14;;;;;;;9.95;8.32;;;10.80;99.90;;;;;;5066138;28;20482;-79
2023/04/24 05:04:39;;;;;;;10.65;8.65;;;13.70;99.90;;;;;;5065885;28;20071;-79
2023/04/24 05:07:06;;;;;;;10.85;8.15;;;11.90;99.90;;;;;;5068429;28;20040;-79
2023/04/24 05:09:31;;;;;;;9.65;8.43;;;10.90;99.90;;;;;;5057772;28;20442;-79
2023/04/24 05:11:57;;;;;;;11.15;8.18;;;14.30;99.90;;;;;;5060019;28;20072;-80
2023/04/24 05:14:23;;;;;;;8.43;7.63;;;12.90;99.90;;;;;;5033781;28;20032;-78
2023/04/24 05:16:49;;;;;;;10.15;8.20;;;14.00;99.90;;;;;;5068072;28;20048;-79
2023/04/24 05:19:14;;;;;;;9.93;8.55;;;12.10;99.90;;;;;;5028172;28;20422;-78
2023/04/24 05:21:41;;;;;;;9.27;7.93;;;11.90;99.90;;;;;;5043824;28;20155;-78
2023/04/24 05:24:06;;;;;;;11.18;8.30;;;13.90;99.90;;;;;;5066998;28;20045;-78
2023/04/24 05:26:32;;;;;;;8.95;8.05;;;12.40;99.90;;;;;;5032234;28;20099;-78
2023/04/24 05:28:58;;;;;;;8.98;7.38;;;14.20;99.90;;;;;;5052428;28;20098;-78
2023/04/24 05:31:25;;;;;;;8.30;7.50;;;14.60;99.90;;;;;;5032011;28;20037;-79
2023/04/24 05:33:50;;;;;;;8.77;7.50;;;12.30;99.90;;;;;;5032893;28;20048;-79
2023/04/24 05:36:16;;;;;;;8.18;6.93;;;13.70;99.90;;;;;;5055743;28;20530;-81
2023/04/24 05:38:42;;;;;;;8.07;6.65;;;14.50;99.90;;;;;;5067732;28;20618;-79
2023/04/24 05:41:08;;;;;;;6.28;5.65;;;14.10;99.90;;;;;;5035272;28;20044;-79
2023/04/24 05:43:33;;;;;;;7.63;6.18;;;13.90;99.90;;;;;;5047622;28;20060;-81
2023/04/24 05:46:00;;;;;;;6.80;6.03;;;10.90;99.90;;;;;;5059378;28;20090;-80
2023/04/24 05:48:26;;;;;;;6.75;5.97;;;14.20;99.90;;;;;;5039441;28;20099;-79
2023/04/24 05:50:52;;;;;;;8.57;6.25;;;10.80;99.90;;;;;;5046209;28;20370;-81
2023/04/24 05:53:18;;;;;;;7.05;5.60;;;14.10;99.90;;;;;;5040643;28;20129;-81
2023/04/24 05:55:45;;;;;;;6.50;5.13;;;14.00;99.90;;;;;;5038225;28;20059;-81
2023/04/24 05:58:12;;;;;;;5.70;4.60;;;11.90;99.90;;;;;;5046046;28;20593;-80
2023/04/24 06:00:39;;;;;;;9.10;6.18;;;11.70;99.90;;;;;;5092401;28;20081;-79
2023/04/24 06:03:05;;;;;;;7.65;5.25;;;13.60;99.90;;;;;;5048570;28;20040;-75
2023/04/24 06:05:31;;;;;;;10.40;5.20;;;12.10;99.90;;;;;;5042793;28;20090;-81
2023/04/24 06:07:56;;;;;;;7.38;4.90;;;11.20;99.90;;;;;;5041874;28;20464;-81
2023/04/24 06:10:22;;;;;;;8.93;5.10;;;14.90;99.90;;;;;;5052517;28;20119;-80
2023/04/24 06:12:48;;;;;;;6.38;4.45;;;11.60;99.90;;;;;;5042611;28;20029;-80
2023/04/24 06:15:13;;;;;;;8.93;4.95;;;10.60;99.90;;;;;;5073451;28;20048;-81
2023/04/24 06:17:39;;;;;;;5.60;3.63;;;13.70;99.90;;;;;;5054088;28;20131;-80
2023/04/24 06:20:07;;;;;;;8.13;4.43;;;15.10;99.90;;;;;;5067753;28;20044;-80
2023/04/24 06:22:33;;;;;;;5.80;4.20;;;13.10;99.90;;;;;;5044804;28;20033;-80
2023/04/24 06:25:00;;;;;;;4.80;3.55;;;10.50;99.90;;;;;;5047660;28;20044;-79
2023/04/24 06:27:26;;;;;;;5.38;4.20;;;10.90;99.90;;;;;;5025917;28;20037;-80
2023/04/24 06:29:54;;;;;;;6.90;5.05;;;10.10;99.90;;;;;;5047859;28;20033;-80
2023/04/24 06:32:24;;;;;;;7.45;5.35;;;10.70;99.90;;;;;;5065697;28;20098;-81
2023/04/24 06:34:51;;;;;;;7.60;4.82;;;12.80;99.90;;;;;;5034454;28;20078;-80
2023/04/24 06:37:18;;;;;;;7.15;5.25;;;15.10;99.90;;;;;;5042525;28;20114;-80
2023/04/24 06:39:43;;;;;;;7.32;5.72;;;14.00;99.90;;;;;;5050794;28;20062;-80
2023/04/24 06:42:09;;;;;;;7.68;6.72;;;15.30;99.90;;;;;;5051223;28;20531;-80
2023/04/24 06:44:40;;;;;;;9.40;5.63;;;11.60;99.90;;;;;;5051006;28;20516;-78
2023/04/24 06:47:09;;;;;;;9.95;6.28;;;11.60;99.90;;;;;;5049608;28;20056;-79
2023/04/24 06:49:36;;;;;;;8.40;5.82;;;10.90;99.90;;;;;;5049842;28;20132;-79
2023/04/24 06:52:03;;;;;;;6.85;5.68;;;10.00;99.90;;;;;;5067063;28;20392;-79
2023/04/24 06:54:29;;;;;;;8.00;5.40;;;15.30;99.90;;;;;;5050571;28;20484;-79
2023/04/24 06:56:57;;;;;;;7.25;5.18;;;10.10;99.90;;;;;;5049568;28;20037;-79
2023/04/24 06:59:24;;;;;;;8.15;5.13;;;10.20;99.90;;;;;;5056585;28;20047;-81
2023/04/24 07:01:50;;;;;;;9.95;5.88;;;13.60;99.90;;;;;;5030310;28;20049;-81
2023/04/24 07:04:17;;;;;;;6.43;5.20;;;12.70;99.90;;;;;;5031113;28;20132;-78
2023/04/24 07:06:43;;;;;;;6.80;4.43;;;10.20;99.90;;;;;;5034615;28;20465;-79
2023/04/24 07:09:09;;;;;;;5.47;3.70;;;16.00;99.90;;;;;;5033208;28;20036;-78
2023/04/24 07:11:36;;;;;;;5.28;3.80;;;10.80;99.90;;;;;;5034961;28;20040;-76
2023/04/24 07:14:02;;;;;;;3.13;2.83;;;16.00;99.90;;;;;;5034116;28;20060;-78
2023/04/24 07:16:28;;;;;;;4.07;2.80;;;10.70;99.90;;;;;;5034754;28;20048;-80
2023/04/24 07:18:54;;;;;;;3.75;2.33;;;10.80;99.90;;;;;;5044760;28;20492;-81
2023/04/24 07:21:19;;;;;;;4.90;2.55;;;13.80;99.90;;;;;;5021442;28;20055;-81
2023/04/24 07:23:45;;;;;;;5.72;2.20;;;15.60;99.90;;;;;;5053829;28;20094;-78
2023/04/24 07:26:11;;;;;;;3.45;1.80;;;14.10;99.90;;;;;;5070966;28;20086;-80
2023/04/24 07:28:36;;;;;;;4.53;2.30;;;10.70;99.90;;;;;;5033612;28;20087;-79
2023/04/24 07:31:02;;;;;;;4.35;2.58;;;10.50;99.90;;;;;;5048981;28;20032;-78
2023/04/24 07:33:28;;;;;;;5.60;2.50;;;10.40;99.90;;;;;;5053788;28;20078;-76
2023/04/24 07:35:53;;;;;;;3.80;2.60;;;15.90;99.90;;;;;;5049107;28;20116;-79
2023/04/24 07:38:22;;;;;;;7.07;2.75;;;15.50;99.90;;;;;;5070005;28;20095;-79
2023/04/24 07:40:48;;;;;;;2.92;2.22;;;15.50;99.90;;;;;;5069987;28;20051;-80
2023/04/24 07:43:14;;;;;;;5.95;2.63;;;15.20;99.90;;;;;;5053586;28;20040;-81
2023/04/24 07:45:40;;;;;;;3.90;2.50;;;10.10;99.90;;;;;;5053504;28;20035;-81
2023/04/24 07:48:08;;;;;;;5.15;2.70;;;14.10;99.90;;;;;;5066703;28;20056;-77
2023/04/24 07:50:35;;;;;;;4.35;3.00;;;10.20;99.90;;;;;;5043560;28;20427;-79
2023/04/24 07:53:01;;;;;;;5.35;3.17;;;10.00;99.90;;;;;;5053207;28;20098;-77
2023/04/24 07:55:27;;;;;;;5.22;3.90;;;15.50;99.90;;;;;;5075368;28;20513;-78
2023/04/24 07:57:53;;;;;;;6.82;3.95;;;10.60;99.90;;;;;;5029160;28;20040;-77
2023/04/24 08:00:19;;;;;;;6.65;4.30;;;14.70;99.90;;;;;;5044615;28;20476;-76
2023/04/24 08:02:45;;;;;;;8.30;3.97;;;15.30;99.90;;;;;;5071895;28;20536;-76
2023/04/24 08:05:11;;;;;;;5.88;3.63;;;15.50;99.90;;;;;;5069897;28;20120;-75
2023/04/24 08:07:37;;;;;;;5.50;3.78;;;10.30;99.90;;;;;;5048123;28;20225;-75
2023/04/24 08:10:04;;;;;;;6.53;3.83;;;13.60;99.90;;;;;;5052266;28;20036;-78
2023/04/24 08:12:29;;;;;;;6.97;4.30;;;10.40;99.90;;;;;;5068590;28;20036;-74
2023/04/24 08:14:55;;;;;;;7.53;4.57;;;14.20;99.90;;;;;;5051570;28;20397;-77
2023/04/24 08:17:21;;;;;;;11.10;6.55;;;11.90;99.90;;;;;;5032704;28;20127;-77
2023/04/24 08:19:50;;;;;;;17.88;7.85;;;12.70;99.90;;;;;;5069144;28;20099;-76
2023/04/24 08:22:16;;;;;;;11.18;7.18;;;13.10;99.90;;;;;;5036756;28;20051;-77
2023/04/24 08:24:43;;;;;;;11.30;6.85;;;10.70;99.90;;;;;;5035262;28;20036;-78
2023/04/24 08:27:10;;;;;;;12.63;8.48;;;13.20;99.90;;;;;;5060177;28;20055;-76
2023/04/24 08:29:36;;;;;;;15.25;9.63;;;14.10;99.90;;;;;;5048644;28;20417;-77
2023/04/24 08:32:02;;;;;;;16.08;10.30;;;12.20;99.90;;;;;;5068400;28;20507;-79
2023/04/24 08:34:29;;;;;;;20.58;11.20;;;10.60;99.90;;;;;;5068291;28;20052;-77
2023/04/24 08:36:54;;;;;;;20.15;11.43;;;10.40;99.90;;;;;;5031972;28;20075;-79
2023/04/24 08:39:20;;;;;;;22.35;12.45;;;13.40;99.90;;;;;;5072204;28;20072;-80
2023/04/24 08:41:48;;;;;;;19.65;13.00;;;12.10;99.90;;;;;;5021298;28;20036;-79
2023/04/24 08:44:15;;;;;;;16.13;10.95;;;11.10;99.90;;;;;;5052114;28;20091;-76
2023/04/24 08:46:45;;;;;;;16.52;10.00;;;12.90;99.90;;;;;;5032317;28;20099;-80
2023/04/24 08:49:12;;;;;;;16.25;10.57;;;14.10;99.90;;;;;;5096799;28;20072;-80
2023/04/24 08:51:39;;;;;;;17.25;9.32;;;13.30;99.90;;;;;;5052396;28;20044;-79
2023/04/24 08:54:05;;;;;;;16.95;10.82;;;13.90;99.90;;;;;;5069362;28;20041;-79
2023/04/24 08:56:33;;;;;;;17.63;10.57;;;13.70;99.90;;;;;;5052458;28;20048;-79
2023/04/24 08:58:59;;;;;;;17.55;9.65;;;10.40;99.90;;;;;;5067984;28;20446;-79
2023/04/24 09:01:26;;;;;;;14.93;10.25;;;13.30;99.90;;;;;;5085529;28;20044;-80
2023/04/24 09:03:54;;;;;;;17.70;11.48;;;13.60;99.90;;;;;;5035179;28;20480;-78
2023/04/24 09:06:23;;;;;;;19.70;11.70;;;11.20;99.90;;;;;;5052338;28;20135;-80
2023/04/24 09:08:53;;;;;;;19.48;10.30;;;12.30;99.90;;;;;;5068691;28;20571;-78
2023/04/24 09:11:19;;;;;;;20.40;11.77;;;11.80;99.90;;;;;;5041513;28;20045;-79
2023/04/24 09:13:45;;;;;;;18.27;10.55;;;11.70;99.90;;;;;;5065346;28;20048;-77
2023/04/24 09:16:12;;;;;;;20.92;11.77;;;11.40;99.90;;;;;;5067250;28;20045;-78
2023/04/24 09:18:37;;;;;;;19.17;11.80;;;10.90;99.90;;;;;;5052227;28;20040;-78
2023/04/24 09:21:07;;;;;;;21.95;12.20;;;11.40;99.90;;;;;;5066686;28;20431;-78
2023/04/24 09:23:33;;;;;;;23.83;14.05;;;10.30;99.90;;;;;;5052405;28;20189;-80
2023/04/24 09:26:00;;;;;;;17.60;11.68;;;10.30;99.90;;;;;;5051516;28;20047;-78
2023/04/24 09:28:31;;;;;;;18.58;12.43;;;10.30;99.90;;;;;;5051632;28;20041;-81
2023/04/24 09:31:06;;;;;;;18.30;11.02;;;12.70;99.90;;;;;;5067417;28;20052;-79
2023/04/24 09:33:32;;;;;;;19.48;12.32;;;10.80;99.90;;;;;;5047313;28;20044;-79
2023/04/24 09:35:59;;;;;;;18.20;11.75;;;10.70;99.90;;;;;;5068206;28;20086;-81
2023/04/24 09:38:53;;;;;;;18.30;11.43;;;10.80;99.90;;;;;;5035378;28;20044;-79
2023/04/24 09:41:19;;;;;;;17.87;11.87;;;11.80;99.90;;;;;;5051057;28;20052;-80
2023/04/24 09:43:45;;;;;;;13.90;9.27;;;12.20;99.90;;;;;;5015781;28;20299;-78
2023/04/24 09:46:11;;;;;;;16.02;10.45;;;12.50;99.90;;;;;;5048572;28;20171;-78
2023/04/24 09:48:37;;;;;;;14.52;10.10;;;12.60;99.90;;;;;;5062269;28;20500;-78
2023/04/24 09:51:11;;;;;;;14.85;10.40;;;11.70;99.90;;;;;;5064535;28;20123;-79
2023/04/24 09:53:39;;;;;;;10.82;7.97;;;12.30;99.90;;;;;;5076598;28;20040;-77
2023/04/24 09:56:12;;;;;;;15.98;10.23;;;11.30;99.90;;;;;;5051444;28;20048;-78
2023/04/24 09:58:38;;;;;;;14.18;9.23;;;10.70;99.90;;;;;;5034680;28;20044;-78
2023/04/24 10:01:04;;;;;;;19.35;11.50;;;10.70;99.90;;;;;;5067306;28;20090;-79
2023/04/24 10:03:32;;;;;;;16.88;9.00;;;10.50;99.90;;;;;;5093285;28;20040;-77
2023/04/24 10:06:02;;;;;;;15.93;8.85;;;11.00;99.90;;;;;;5047671;28;20817;-79
2023/04/24 10:08:34;;;;;;;16.95;8.77;;;10.50;99.90;;;;;;5047579;28;20162;-77
2023/04/24 10:11:01;;;;;;;15.65;8.23;;;11.20;99.90;;;;;;5058954;28;20127;-78
2023/04/24 10:13:28;;;;;;;14.13;7.22;;;11.80;99.90;;;;;;5039644;28;20083;-77
2023/04/24 10:15:54;;;;;;;16.30;8.05;;;10.70;99.90;;;;;;5032166;28;20087;-77
2023/04/24 10:18:21;;;;;;;12.13;6.45;;;12.20;99.90;;;;;;5072853;28;20074;-75
2023/04/24 10:20:47;;;;;;;17.38;7.30;;;11.10;99.90;;;;;;5049927;28;20052;-76
2023/04/24 10:23:13;;;;;;;12.57;6.55;;;11.40;99.90;;;;;;5047322;28;20380;-81
2023/04/24 10:25:39;;;;;;;10.15;6.30;;;12.00;99.90;;;;;;5049969;28;21351;-78
2023/04/24 10:28:05;;;;;;;12.65;6.97;;;11.50;99.90;;;;;;5066464;28;20043;-78
2023/04/24 10:30:36;;;;;;;13.15;6.65;;;11.70;99.90;;;;;;5053353;28;20039;-79
2023/04/24 10:33:03;;;;;;;7.57;4.97;;;11.60;99.90;;;;;;5065328;28;20118;-76
2023/04/24 10:35:37;;;;;;;11.32;5.25;;;12.40;99.90;;;;;;5065946;28;20124;-75
2023/04/24 10:38:07;;;;;;;8.35;3.85;;;12.40;99.90;;;;;;5049720;28;20541;-77
2023/04/24 10:40:35;;;;;;;6.38;3.63;;;12.00;99.90;;;;;;5063813;28;20371;-76
2023/04/24 10:43:10;;;;;;;6.45;3.78;;;12.10;99.90;;;;;;5033679;28;20041;-78
2023/04/24 10:45:37;;;;;;;6.82;4.35;;;11.80;99.90;;;;;;5030054;28;20039;-75
2023/04/24 10:48:10;;;;;;;10.05;3.80;;;12.20;99.90;;;;;;5030214;28;20053;-75
2023/04/24 10:50:53;;;;;;;7.07;3.60;;;12.50;99.90;;;;;;5074665;28;20032;-76
2023/04/24 10:53:23;;;;;;;10.27;4.50;;;12.50;99.90;;;;;;5069369;28;20029;-76
2023/04/24 10:56:02;;;;;;;7.10;3.50;;;12.50;99.90;;;;;;5089217;28;20041;-74
2023/04/24 10:58:48;;;;;;;11.68;4.25;;;12.50;99.90;;;;;;5061813;28;20040;-74
2023/04/24 11:01:33;;;;;;;7.00;3.05;;;12.50;99.90;;;;;;5064306;28;20048;-74
2023/04/24 11:04:03;;;;;;;3.88;2.58;;;12.50;99.90;;;;;;5059871;28;20430;-75
2023/04/24 11:06:35;;;;;;;5.63;2.75;;;12.10;99.90;;;;;;5057009;28;20119;-75
2023/04/24 11:09:09;;;;;;;9.15;3.15;;;12.50;99.90;;;;;;5064285;28;20036;-75
2023/04/24 11:11:37;;;;;;;7.13;2.72;;;12.40;99.90;;;;;;5059725;28;20076;-76
2023/04/24 11:14:15;;;;;;;5.90;2.78;;;12.30;99.90;;;;;;5074414;28;20072;-73
2023/04/24 11:17:00;;;;;;;7.63;2.95;;;12.30;99.90;;;;;;5070856;28;20044;-76
2023/04/24 11:19:28;;;;;;;5.97;2.97;;;12.40;99.90;;;;;;5052602;28;20062;-74
2023/04/24 11:22:03;;;;;;;8.95;2.60;;;12.20;99.90;;;;;;5087222;28;20045;-76
2023/04/24 11:24:28;;;;;;;;;;;12.50;99.90;;;;;;5077540;28;20041;-77
2023/04/24 11:26:56;;;;;;;5.13;2.70;;;12.40;99.90;;;;;;5067768;28;19978;-73
2023/04/24 11:29:37;;;;;;;8.80;3.42;;;12.10;99.90;;;;;;5051572;28;20090;-75
2023/04/24 11:32:19;;;;;;;4.45;1.88;;;12.20;99.90;;;;;;5077737;28;20048;-79
2023/04/24 11:35:14;;;;;;;4.20;2.00;;;11.80;99.90;;;;;;5070298;28;20041;-74
2023/04/24 11:37:52;;;;;;;7.85;2.15;;;12.00;99.90;;;;;;5057214;28;20057;-75
2023/04/24 11:40:20;;;;;;;;;;;12.10;99.90;;;;;;5034548;28;20477;-75
2023/04/24 11:42:47;;;;;;;5.80;2.20;;;12.10;99.90;;;;;;5070605;28;19944;-79
2023/04/24 11:45:23;;;;;;;8.00;2.30;;;12.20;99.90;;;;;;5049893;28;20385;-77
2023/04/24 11:47:49;;;;;;;4.63;2.45;;;12.30;99.90;;;;;;5039323;28;20052;-78
2023/04/24 11:50:20;;;;;;;6.57;2.30;;;12.10;99.90;;;;;;5068129;28;20036;-78
2023/04/24 11:52:49;;;;;;;5.05;2.50;;;11.90;99.90;;;;;;5055736;28;20033;-77
2023/04/24 11:55:15;;;;;;;10.13;2.47;;;12.00;99.90;;;;;;5052883;28;20477;-77
2023/04/24 11:57:45;;;;;;;6.28;2.30;;;11.70;99.90;;;;;;5069906;28;20044;-76
2023/04/24 12:00:29;;;;;;;8.38;2.40;;;12.00;99.90;;;;;;5052481;28;20059;-75
2023/04/24 12:03:10;;;;;;;7.03;1.95;;;11.80;99.90;;;;;;5073804;28;20469;-77
2023/04/24 12:05:36;;;;;;;4.05;1.73;;;12.00;99.90;;;;;;5077398;28;20048;-76
2023/04/24 12:08:02;;;;;;;5.70;2.22;;;12.00;99.90;;;;;;5053080;28;20041;-75
2023/04/24 12:10:30;;;;;;;6.50;2.22;;;11.80;99.90;;;;;;5052370;28;20047;-77
2023/04/24 12:12:56;;;;;;;7.18;2.13;;;12.10;99.90;;;;;;5043851;28;20037;-77
2023/04/24 12:15:23;;;;;;;5.90;2.45;;;12.00;99.90;;;;;;5069639;28;20044;-77
2023/04/24 12:17:51;;;;;;;10.30;2.38;;;11.80;99.90;;;;;;5069915;28;20152;-75
2023/04/24 12:20:17;;;;;;;8.40;2.42;;;11.90;99.90;;;;;;5068875;28;20040;-77
2023/04/24 12:22:45;;;;;;;9.77;2.08;;;11.90;99.90;;;;;;5064479;28;20049;-79
2023/04/24 12:25:11;;;;;;;5.45;2.50;;;11.80;99.90;;;;;;5081379;28;20083;-77
2023/04/24 12:27:37;;;;;;;7.43;2.35;;;11.80;99.90;;;;;;5068616;28;20032;-78
2023/04/24 12:30:05;;;;;;;4.85;2.03;;;11.60;99.90;;;;;;5068632;28;20362;-76
2023/04/24 12:32:31;;;;;;;7.57;2.40;;;11.40;99.90;;;;;;5067944;28;20053;-77
2023/04/24 12:34:57;;;;;;;3.45;1.88;;;11.60;99.90;;;;;;5066382;28;20035;-79
2023/04/24 12:37:32;;;;;;;7.85;1.83;;;11.90;99.90;;;;;;5067932;28;20037;-81
2023/04/24 12:40:07;;;;;;;18.33;3.17;;;11.80;99.90;;;;;;5052958;28;20044;-77
2023/04/24 12:42:34;;;;;;;4.90;1.90;;;12.00;99.90;;;;;;5051826;28;20435;-75